Time;durP1;ratioP1;P1;durP2;ratioP2;P2;SDS_P1;SDS_P2;PMS_P1;PMS_P2;Temp;Humidity;BMP_temperature;BMP_pressure;BME280_temperature;BME280_humidity;BME280_pressure;Samples;Min_cycle;Max_cycle;Signal;HPM_P1;HPM_P2
2022/12/18 00:01:31;;;;;;;8.53;4.47;;;-6.80;99.90;;;;;;5052399;28;20226;-76
2022/12/18 00:03:57;;;;;;;8.53;4.47;;;-6.70;99.90;;;;;;5054420;28;20241;-75
2022/12/18 00:06:24;;;;;;;8.70;5.07;;;-6.60;99.90;;;;;;5051929;28;20200;-75
2022/12/18 00:08:50;;;;;;;9.73;5.53;;;-6.60;99.90;;;;;;5045315;28;20648;-75
2022/12/18 00:11:19;;;;;;;7.23;4.17;;;-6.50;99.90;;;;;;5052165;28;20186;-75
2022/12/18 00:13:45;;;;;;;8.97;5.33;;;-6.40;99.90;;;;;;5055040;28;20538;-75
2022/12/18 00:16:20;;;;;;;9.00;4.60;;;-6.40;99.90;;;;;;5054484;28;20272;-75
2022/12/18 00:18:46;;;;;;;11.00;5.30;;;-6.30;99.90;;;;;;5053559;28;20709;-75
2022/12/18 00:21:13;;;;;;;9.67;5.53;;;-6.30;99.90;;;;;;5048410;28;20266;-75
2022/12/18 00:23:41;;;;;;;11.67;5.20;;;-6.30;99.90;;;;;;5062210;28;20180;-75
2022/12/18 00:26:13;;;;;;;8.87;5.17;;;-6.30;99.90;;;;;;5045593;28;20757;-75
2022/12/18 00:28:38;;;;;;;6.03;4.07;;;-6.20;99.90;;;;;;5045932;28;20184;-75
2022/12/18 00:31:07;;;;;;;8.10;4.23;;;-6.20;99.90;;;;;;5052370;28;20250;-75
2022/12/18 00:33:32;;;;;;;10.30;5.40;;;-6.20;99.90;;;;;;5046747;28;20191;-75
2022/12/18 00:36:02;;;;;;;7.90;4.90;;;-6.20;99.90;;;;;;5052353;28;20218;-75
2022/12/18 00:38:28;;;;;;;9.93;5.17;;;-6.10;99.90;;;;;;5048486;28;20203;-75
2022/12/18 00:40:53;;;;;;;10.93;4.50;;;-6.10;99.90;;;;;;5045037;28;20186;-75
2022/12/18 00:43:19;;;;;;;7.43;3.90;;;-6.10;99.90;;;;;;5046646;28;20653;-75
2022/12/18 00:45:45;;;;;;;8.17;4.20;;;-6.00;99.90;;;;;;5051126;28;20249;-76
2022/12/18 00:48:11;;;;;;;9.40;4.77;;;-6.00;99.90;;;;;;5052159;28;20195;-76
2022/12/18 00:50:36;;;;;;;6.63;4.20;;;-5.90;99.90;;;;;;5052955;28;20203;-75
2022/12/18 00:53:02;;;;;;;7.00;4.40;;;-5.90;99.90;;;;;;5050744;28;20184;-74
2022/12/18 00:55:27;;;;;;;9.60;5.37;;;-5.80;99.90;;;;;;5046596;28;20206;-75
2022/12/18 00:57:53;;;;;;;11.23;4.87;;;-5.70;99.90;;;;;;5060940;28;20187;-77
2022/12/18 01:00:18;;;;;;;8.90;4.73;;;-5.70;99.90;;;;;;5050542;28;20179;-75
2022/12/18 01:02:44;;;;;;;10.47;4.67;;;-5.60;99.90;;;;;;5055009;28;20167;-75
2022/12/18 01:05:11;;;;;;;9.37;5.30;;;-5.70;99.90;;;;;;5053834;28;20188;-75
2022/12/18 01:07:37;;;;;;;8.60;5.17;;;-5.70;99.90;;;;;;5052579;28;20598;-75
2022/12/18 01:10:04;;;;;;;11.57;4.97;;;-5.70;99.90;;;;;;5049278;28;20241;-75
2022/12/18 01:12:29;;;;;;;8.90;5.37;;;-5.70;99.90;;;;;;5054619;28;20556;-75
2022/12/18 01:14:55;;;;;;;10.87;4.73;;;-5.70;99.90;;;;;;5053443;28;20180;-76
2022/12/18 01:17:21;;;;;;;7.23;4.10;;;-5.70;99.90;;;;;;5051577;28;20199;-75
2022/12/18 01:19:47;;;;;;;9.57;5.10;;;-5.80;99.90;;;;;;5051906;28;20206;-75
2022/12/18 01:22:12;;;;;;;7.57;4.20;;;-5.80;99.90;;;;;;5052348;28;20184;-75
2022/12/18 01:24:38;;;;;;;9.80;4.90;;;-5.90;99.90;;;;;;5047321;28;20173;-75
2022/12/18 01:27:03;;;;;;;8.07;4.97;;;-5.80;99.90;;;;;;5064328;28;20253;-75
2022/12/18 01:29:29;;;;;;;11.97;5.20;;;-5.80;99.90;;;;;;5053776;28;20195;-75
2022/12/18 01:31:56;;;;;;;6.43;3.83;;;-5.80;99.90;;;;;;5052994;28;20171;-75
2022/12/18 01:34:22;;;;;;;8.40;4.73;;;-5.70;99.90;;;;;;5053604;28;20217;-74
2022/12/18 01:36:48;;;;;;;6.67;4.17;;;-5.70;99.90;;;;;;5053387;28;20223;-75
2022/12/18 01:39:14;;;;;;;7.60;4.23;;;-5.70;99.90;;;;;;5050616;28;20203;-75
2022/12/18 01:45:02;;;;;;;8.40;4.53;;;-5.60;99.90;;;;;;5050403;28;20233;-75
2022/12/18 01:47:53;;;;;;;7.70;4.40;;;-5.50;99.90;;;;;;5054018;28;20216;-75
2022/12/18 01:50:26;;;;;;;11.67;5.03;;;-5.50;99.90;;;;;;5051298;28;20180;-75
2022/12/18 01:52:56;;;;;;;7.30;3.57;;;-5.40;99.90;;;;;;5052043;28;20229;-76
2022/12/18 01:55:26;;;;;;;6.23;3.93;;;-5.40;99.90;;;;;;5048499;28;20206;-74
2022/12/18 01:57:54;;;;;;;6.47;4.57;;;-5.40;99.90;;;;;;5053048;28;20175;-77
2022/12/18 02:00:22;;;;;;;11.77;4.63;;;-5.30;99.90;;;;;;5049486;28;20207;-75
2022/12/18 02:02:48;;;;;;;9.73;5.03;;;-5.30;99.90;;;;;;5051919;28;20179;-75
2022/12/18 02:05:21;;;;;;;7.37;4.17;;;-5.20;99.90;;;;;;5050815;28;20529;-74
2022/12/18 02:08:17;;;;;;;9.17;5.10;;;-5.20;99.90;;;;;;5051066;28;20175;-75
2022/12/18 02:11:03;;;;;;;8.27;4.27;;;-5.20;99.90;;;;;;5063146;28;20233;-75
2022/12/18 02:13:46;;;;;;;6.70;4.27;;;-5.10;99.90;;;;;;5052683;28;20175;-73
2022/12/18 02:16:24;;;;;;;7.73;5.00;;;-5.20;99.90;;;;;;5054154;28;20660;-75
2022/12/18 02:18:56;;;;;;;8.60;5.03;;;-5.10;99.90;;;;;;5050552;28;20307;-75
2022/12/18 02:21:31;;;;;;;9.43;4.40;;;-5.10;99.90;;;;;;5051321;28;20647;-75
2022/12/18 02:24:12;;;;;;;8.37;4.83;;;-5.10;99.90;;;;;;5048902;28;20179;-78
2022/12/18 02:27:07;;;;;;;8.07;4.40;;;-5.10;99.90;;;;;;5040284;28;20207;-75
2022/12/18 02:29:35;;;;;;;9.43;4.80;;;-5.10;99.90;;;;;;5059113;28;20175;-75
2022/12/18 02:32:04;;;;;;;8.80;5.00;;;-5.10;99.90;;;;;;5052441;28;20176;-75
2022/12/18 02:34:32;;;;;;;7.70;4.93;;;-5.10;99.90;;;;;;5050013;28;20184;-75
2022/12/18 02:37:01;;;;;;;9.43;4.87;;;-5.20;99.90;;;;;;5052994;28;20222;-75
2022/12/18 02:39:29;;;;;;;7.90;4.30;;;-5.10;99.90;;;;;;5049765;28;20583;-75
2022/12/18 02:41:54;;;;;;;9.63;5.17;;;-5.10;99.90;;;;;;5051038;28;20180;-75
2022/12/18 02:44:20;;;;;;;10.10;4.50;;;-5.10;99.90;;;;;;5050455;28;20287;-75
2022/12/18 02:46:50;;;;;;;10.63;4.70;;;-5.00;99.90;;;;;;5053062;28;20202;-75
2022/12/18 02:49:36;;;;;;;6.97;4.33;;;-5.10;99.90;;;;;;5054518;28;20184;-75
2022/12/18 02:52:29;;;;;;;11.17;4.67;;;-5.00;99.90;;;;;;5050756;28;20242;-75
2022/12/18 02:55:18;;;;;;;10.27;5.20;;;-5.00;99.90;;;;;;5042702;28;20182;-75
2022/12/18 02:58:13;;;;;;;10.23;4.67;;;-5.00;99.90;;;;;;5051432;28;20209;-75
2022/12/18 03:01:22;;;;;;;7.77;4.57;;;-5.00;99.90;;;;;;5050930;28;20206;-75
2022/12/18 03:03:57;;;;;;;8.03;4.73;;;-5.00;99.90;;;;;;5042284;28;20191;-75
2022/12/18 03:06:22;;;;;;;7.60;4.73;;;-4.90;99.90;;;;;;5053082;28;20191;-75
2022/12/18 03:08:53;;;;;;;9.80;4.70;;;-4.90;99.90;;;;;;5047354;28;20184;-75
2022/12/18 03:12:22;;;;;;;9.70;5.40;;;-4.80;99.90;;;;;;5053054;28;20156;-75
2022/12/18 03:14:06;;;;;;;9.70;4.87;;;-4.80;99.90;;;;;;5051595;28;20340;-73
2022/12/18 03:16:34;;;;;;;9.60;5.70;;;-4.80;99.90;;;;;;5053077;28;20660;-75
2022/12/18 03:19:17;;;;;;;8.57;5.10;;;-4.80;99.90;;;;;;5048858;28;20593;-75
2022/12/18 03:21:47;;;;;;;8.87;4.30;;;-4.80;99.90;;;;;;5051753;28;20156;-76
2022/12/18 03:24:14;;;;;;;7.30;4.37;;;-4.80;99.90;;;;;;5043167;28;20544;-75
2022/12/18 03:26:44;;;;;;;12.80;5.53;;;-4.70;99.90;;;;;;5052538;28;20184;-75
2022/12/18 03:29:17;;;;;;;8.83;4.63;;;-4.70;99.90;;;;;;5050521;28;20184;-75
2022/12/18 03:31:49;;;;;;;8.50;5.10;;;-4.70;99.90;;;;;;5053073;28;20175;-75
2022/12/18 03:34:19;;;;;;;7.17;4.37;;;-4.80;99.90;;;;;;5054206;28;20278;-75
2022/12/18 03:36:45;;;;;;;9.87;4.67;;;-4.70;99.90;;;;;;5055078;28;20711;-75
2022/12/18 03:39:11;;;;;;;9.83;4.93;;;-4.70;99.90;;;;;;5051884;28;20207;-75
2022/12/18 03:42:01;;;;;;;8.13;5.07;;;-4.70;99.90;;;;;;5055311;28;20178;-75
2022/12/18 03:44:29;;;;;;;7.30;4.30;;;-4.70;99.90;;;;;;5049984;28;20182;-75
2022/12/18 03:47:06;;;;;;;7.23;4.60;;;-4.70;99.90;;;;;;5056375;28;20195;-75
2022/12/18 03:49:55;;;;;;;6.20;4.00;;;-4.70;99.90;;;;;;5041540;28;20217;-75
2022/12/18 03:52:35;;;;;;;9.13;4.90;;;-4.70;99.90;;;;;;5053579;28;20164;-75
2022/12/18 03:55:03;;;;;;;8.27;4.57;;;-4.70;99.90;;;;;;5054641;28;20186;-75
2022/12/18 03:57:31;;;;;;;9.17;4.27;;;-4.60;99.90;;;;;;5053295;28;20707;-75
2022/12/18 04:00:23;;;;;;;8.03;5.10;;;-4.60;99.90;;;;;;5056389;28;20254;-75
2022/12/18 04:02:52;;;;;;;7.37;4.07;;;-4.60;99.90;;;;;;5049347;28;20703;-77
2022/12/18 04:05:20;;;;;;;6.33;3.73;;;-4.60;99.90;;;;;;5054774;28;20270;-75
2022/12/18 04:07:47;;;;;;;10.80;5.37;;;-4.60;99.90;;;;;;5053269;28;20176;-75
2022/12/18 04:10:15;;;;;;;6.97;4.50;;;-4.70;99.90;;;;;;5054215;28;20179;-75
2022/12/18 04:12:41;;;;;;;7.77;4.67;;;-4.70;99.90;;;;;;5053936;28;20182;-75
2022/12/18 04:15:07;;;;;;;9.43;4.87;;;-4.70;99.90;;;;;;5054450;28;20520;-76
2022/12/18 04:17:33;;;;;;;7.93;4.37;;;-4.80;99.90;;;;;;5054079;28;20183;-75
2022/12/18 04:19:58;;;;;;;9.73;4.10;;;-4.80;99.90;;;;;;5053399;28;20203;-75
2022/12/18 04:22:24;;;;;;;9.17;4.20;;;-4.90;99.90;;;;;;5053905;28;20187;-76
2022/12/18 04:24:49;;;;;;;7.03;3.87;;;-5.00;99.90;;;;;;5067081;28;20595;-77
2022/12/18 04:27:15;;;;;;;7.37;4.00;;;-5.00;99.90;;;;;;5054283;28;20199;-75
2022/12/18 04:29:40;;;;;;;5.83;3.50;;;-5.00;99.90;;;;;;5053883;28;20245;-75
2022/12/18 04:32:07;;;;;;;6.37;3.93;;;-5.10;99.90;;;;;;5054907;28;20191;-74
2022/12/18 04:34:32;;;;;;;5.87;3.73;;;-5.20;99.90;;;;;;5053121;28;20184;-75
2022/12/18 04:36:58;;;;;;;7.37;4.63;;;-5.30;99.90;;;;;;5055302;28;20211;-75
2022/12/18 04:39:23;;;;;;;9.17;4.07;;;-5.30;99.90;;;;;;5052491;28;20214;-75
2022/12/18 04:41:49;;;;;;;6.97;4.33;;;-5.30;99.90;;;;;;5051978;28;20210;-75
2022/12/18 04:44:14;;;;;;;6.63;3.40;;;-5.40;99.90;;;;;;5052673;28;20270;-75
2022/12/18 04:46:40;;;;;;;6.93;3.83;;;-5.50;99.90;;;;;;5054759;28;20235;-75
2022/12/18 04:49:05;;;;;;;6.67;4.03;;;-5.50;99.90;;;;;;5054376;28;20195;-75
2022/12/18 04:51:31;;;;;;;5.77;3.57;;;-5.60;99.90;;;;;;5053353;28;20192;-75
2022/12/18 04:53:56;;;;;;;5.30;3.60;;;-5.60;99.90;;;;;;5054407;28;20198;-75
2022/12/18 04:56:22;;;;;;;6.90;3.60;;;-5.70;99.90;;;;;;5052379;28;20249;-75
2022/12/18 04:58:48;;;;;;;9.50;4.23;;;-5.70;99.90;;;;;;5054126;28;20214;-75
2022/12/18 05:01:16;;;;;;;8.43;4.07;;;-5.80;99.90;;;;;;5054116;28;20653;-75
2022/12/18 05:03:42;;;;;;;7.43;4.00;;;-5.80;99.90;;;;;;5052710;28;20665;-75
2022/12/18 05:06:08;;;;;;;5.83;2.97;;;-5.80;99.90;;;;;;5052757;28;20206;-75
2022/12/18 05:08:34;;;;;;;6.90;3.83;;;-5.90;99.90;;;;;;5052659;28;20183;-75
2022/12/18 05:11:00;;;;;;;6.93;3.70;;;-5.90;99.90;;;;;;5051541;28;20187;-75
2022/12/18 05:13:26;;;;;;;5.80;3.60;;;-5.90;99.90;;;;;;5052317;28;20671;-75
2022/12/18 05:15:52;;;;;;;6.40;3.67;;;-6.00;99.90;;;;;;5052930;28;20214;-75
2022/12/18 05:18:17;;;;;;;8.27;4.10;;;-6.00;99.90;;;;;;5055494;28;20202;-75
2022/12/18 05:20:43;;;;;;;7.50;3.97;;;-6.10;99.90;;;;;;5057484;28;20179;-75
2022/12/18 05:23:08;;;;;;;5.57;3.47;;;-6.10;99.90;;;;;;5057204;28;20183;-74
2022/12/18 05:25:34;;;;;;;5.13;2.87;;;-6.10;99.90;;;;;;5053602;28;20699;-75
2022/12/18 05:27:59;;;;;;;6.57;3.40;;;-6.10;99.90;;;;;;5054366;28;20203;-75
2022/12/18 05:30:25;;;;;;;6.53;3.27;;;-6.20;99.90;;;;;;5052428;28;20176;-75
2022/12/18 05:32:51;;;;;;;5.40;3.23;;;-6.20;99.90;;;;;;5054771;28;20270;-75
2022/12/18 05:35:16;;;;;;;6.73;3.80;;;-6.20;99.90;;;;;;5051106;28;20251;-75
2022/12/18 05:37:42;;;;;;;7.33;3.57;;;-6.30;99.90;;;;;;5087975;22;20611;-78
2022/12/18 05:40:08;;;;;;;5.43;3.03;;;-6.30;99.90;;;;;;5082684;28;20203;-82
2022/12/18 05:42:33;;;;;;;8.73;3.67;;;-6.30;99.90;;;;;;5064040;28;20183;-78
2022/12/18 05:44:59;;;;;;;4.90;2.90;;;-6.30;99.90;;;;;;5083398;28;20200;-78
2022/12/18 05:47:24;;;;;;;5.57;2.97;;;-6.40;99.90;;;;;;5050227;28;20211;-78
2022/12/18 05:49:50;;;;;;;4.77;3.57;;;-6.40;99.90;;;;;;5064029;28;20213;-78
2022/12/18 05:52:15;;;;;;;5.83;3.37;;;-6.40;99.90;;;;;;5062893;28;20191;-81
2022/12/18 05:54:41;;;;;;;7.03;3.57;;;-6.40;99.90;;;;;;5046447;28;20644;-79
2022/12/18 05:57:06;;;;;;;7.70;3.70;;;-6.50;99.90;;;;;;5061688;28;20258;-78
2022/12/18 05:59:32;;;;;;;6.80;3.37;;;-6.50;99.90;;;;;;5042828;28;20199;-78
2022/12/18 06:01:58;;;;;;;5.23;3.40;;;-6.50;99.90;;;;;;5063033;28;20269;-79
2022/12/18 06:04:23;;;;;;;5.50;3.10;;;-6.50;99.90;;;;;;5062683;28;20179;-78
2022/12/18 06:06:49;;;;;;;5.77;3.97;;;-6.50;99.90;;;;;;5042890;28;20199;-78
2022/12/18 06:09:14;;;;;;;5.70;3.33;;;-6.50;99.90;;;;;;5061137;28;20183;-78
2022/12/18 06:11:40;;;;;;;6.27;3.30;;;-6.60;99.90;;;;;;5043180;28;20238;-79
2022/12/18 06:14:07;;;;;;;4.33;2.83;;;-6.60;99.90;;;;;;5044239;28;20210;-78
2022/12/18 06:16:32;;;;;;;6.20;3.00;;;-6.60;99.90;;;;;;5042283;28;20231;-78
2022/12/18 06:19:00;;;;;;;5.80;3.13;;;-6.60;99.90;;;;;;5061873;28;20555;-78
2022/12/18 06:21:26;;;;;;;6.27;3.17;;;-6.60;99.90;;;;;;5061061;28;20199;-79
2022/12/18 06:23:51;;;;;;;5.33;3.40;;;-6.60;99.90;;;;;;5044268;28;20189;-78
2022/12/18 06:26:17;;;;;;;9.33;3.60;;;-6.60;99.90;;;;;;5044522;28;20286;-78
2022/12/18 06:28:42;;;;;;;5.63;2.90;;;-6.60;99.90;;;;;;5061538;28;20197;-78
2022/12/18 06:31:09;;;;;;;5.30;3.00;;;-6.60;99.90;;;;;;5059654;28;20187;-78
2022/12/18 06:33:35;;;;;;;5.77;3.03;;;-6.60;99.90;;;;;;5060421;28;20266;-78
2022/12/18 06:36:07;;;;;;;5.67;2.97;;;-6.70;99.90;;;;;;5041680;28;20187;-79
2022/12/18 06:38:33;;;;;;;5.80;2.90;;;-6.70;99.90;;;;;;5059368;28;20274;-78
2022/12/18 06:40:59;;;;;;;5.90;3.20;;;-6.70;99.90;;;;;;5040880;28;20282;-79
2022/12/18 06:43:25;;;;;;;6.23;3.63;;;-6.80;99.90;;;;;;5043805;28;20598;-78
2022/12/18 06:45:52;;;;;;;4.67;2.90;;;-6.70;99.90;;;;;;5059867;28;20179;-80
2022/12/18 06:48:21;;;;;;;3.77;2.37;;;-6.80;99.90;;;;;;5063468;28;20172;-78
2022/12/18 06:50:47;;;;;;;7.37;3.00;;;-6.80;99.90;;;;;;5057760;28;20179;-78
2022/12/18 06:53:12;;;;;;;5.57;2.90;;;-6.80;99.90;;;;;;5038228;28;20190;-78
2022/12/18 06:55:38;;;;;;;6.40;3.07;;;-6.90;99.90;;;;;;5055764;28;21754;-79
2022/12/18 06:58:03;;;;;;;6.53;3.40;;;-6.90;99.90;;;;;;5055206;28;20211;-78
2022/12/18 07:00:29;;;;;;;3.20;2.10;;;-6.90;99.90;;;;;;5038885;28;20179;-78
2022/12/18 07:02:54;;;;;;;3.83;2.40;;;-6.90;99.90;;;;;;5055993;28;20716;-78
2022/12/18 07:05:20;;;;;;;5.80;3.23;;;-6.90;99.90;;;;;;5037938;28;20557;-80
2022/12/18 07:07:45;;;;;;;4.20;2.70;;;-6.90;99.90;;;;;;5039123;28;20206;-78
2022/12/18 07:10:11;;;;;;;5.90;3.27;;;-7.00;99.90;;;;;;5056594;28;20340;-79
2022/12/18 07:12:36;;;;;;;5.00;2.63;;;-6.90;99.90;;;;;;5055580;28;20198;-79
2022/12/18 07:15:02;;;;;;;5.07;2.70;;;-7.00;99.90;;;;;;5056621;28;20270;-78
2022/12/18 07:17:29;;;;;;;6.20;2.83;;;-7.00;99.90;;;;;;5054951;28;20199;-78
2022/12/18 07:19:55;;;;;;;5.30;3.47;;;-6.90;99.90;;;;;;5056208;28;20207;-78
2022/12/18 07:22:21;;;;;;;3.43;2.33;;;-6.90;99.90;;;;;;5056314;28;20184;-79
2022/12/18 07:24:50;;;;;;;4.40;2.67;;;-6.90;99.90;;;;;;5032576;28;20180;-79
2022/12/18 07:27:15;;;;;;;5.10;2.60;;;-6.90;99.90;;;;;;5034995;28;20290;-78
2022/12/18 07:29:41;;;;;;;6.10;3.23;;;-6.90;99.90;;;;;;5052426;28;20306;-77
2022/12/18 07:32:07;;;;;;;7.07;2.83;;;-6.80;99.90;;;;;;5033088;28;20194;-78
2022/12/18 07:34:32;;;;;;;4.87;2.73;;;-6.80;99.90;;;;;;5068423;28;20182;-77
2022/12/18 07:36:58;;;;;;;6.10;3.43;;;-6.70;99.90;;;;;;5048868;28;20214;-80
2022/12/18 07:39:23;;;;;;;7.83;4.37;;;-6.60;99.90;;;;;;5051322;28;20200;-77
2022/12/18 07:42:30;;;;;;;4.70;3.33;;;-6.50;99.90;;;;;;5049562;28;20649;-77
2022/12/18 07:44:35;;;;;;;6.17;3.27;;;-6.40;99.90;;;;;;5052231;28;20221;-77
2022/12/18 07:47:00;;;;;;;5.17;3.73;;;-6.20;99.90;;;;;;5049777;28;20242;-79
2022/12/18 07:49:26;;;;;;;6.17;3.97;;;-6.10;99.90;;;;;;5052103;28;20556;-77
2022/12/18 07:51:53;;;;;;;5.57;3.20;;;-5.90;99.90;;;;;;5050634;28;20636;-77
2022/12/18 07:54:19;;;;;;;8.33;3.90;;;-5.80;99.90;;;;;;5050612;28;20188;-77
2022/12/18 07:56:44;;;;;;;7.20;4.03;;;-5.60;99.90;;;;;;5047544;28;20262;-77
2022/12/18 07:59:10;;;;;;;8.07;3.90;;;-5.60;99.90;;;;;;5030787;28;20191;-77
2022/12/18 08:01:35;;;;;;;7.13;3.60;;;-5.40;99.90;;;;;;5032699;28;20188;-77
2022/12/18 08:04:01;;;;;;;5.97;4.00;;;-5.20;99.90;;;;;;5034517;28;20179;-76
2022/12/18 08:06:26;;;;;;;6.97;4.10;;;-5.10;99.90;;;;;;5033656;28;20222;-77
2022/12/18 08:08:53;;;;;;;7.13;3.97;;;-5.00;99.90;;;;;;5051334;28;20193;-78
2022/12/18 08:11:19;;;;;;;7.83;4.23;;;-4.90;99.90;;;;;;5048393;28;20237;-78
2022/12/18 08:13:44;;;;;;;8.67;5.10;;;-4.80;99.90;;;;;;5030649;28;20213;-78
2022/12/18 08:16:10;;;;;;;7.27;4.27;;;-4.70;99.90;;;;;;5034747;28;20523;-79
2022/12/18 08:18:37;;;;;;;9.93;4.87;;;-4.60;99.90;;;;;;5034267;28;20203;-77
2022/12/18 08:21:14;;;;;;;7.40;4.80;;;-4.50;99.90;;;;;;5034858;28;20233;-78
2022/12/18 08:23:40;;;;;;;9.20;4.63;;;-4.40;99.90;;;;;;5044383;28;20171;-77
2022/12/18 08:26:06;;;;;;;9.47;5.00;;;-4.30;99.90;;;;;;5054485;28;20208;-79
2022/12/18 08:28:32;;;;;;;8.60;4.80;;;-4.30;99.90;;;;;;5057593;28;20183;-78
2022/12/18 08:30:57;;;;;;;10.60;4.73;;;-4.20;99.90;;;;;;5059177;28;20197;-78
2022/12/18 08:33:23;;;;;;;10.33;5.30;;;-4.20;99.90;;;;;;5054431;28;21166;-78
2022/12/18 08:35:49;;;;;;;9.20;4.77;;;-4.10;99.90;;;;;;5053581;28;20187;-77
2022/12/18 08:38:14;;;;;;;10.07;4.67;;;-4.10;99.90;;;;;;5052680;28;20207;-78
2022/12/18 08:40:40;;;;;;;8.10;4.77;;;-4.10;99.90;;;;;;5069279;28;20183;-77
2022/12/18 08:45:51;;;;;;;8.70;4.60;;;-3.90;99.90;;;;;;5060622;28;20254;-78
2022/12/18 08:48:17;;;;;;;9.60;5.23;;;-3.80;99.90;;;;;;5056031;28;20196;-78
2022/12/18 08:50:42;;;;;;;9.63;5.50;;;-3.70;99.90;;;;;;5071839;28;20656;-79
2022/12/18 08:53:08;;;;;;;11.83;5.57;;;-3.70;99.90;;;;;;5038879;28;20183;-79
2022/12/18 08:55:34;;;;;;;9.07;5.33;;;-3.60;99.90;;;;;;5039881;28;20271;-78
2022/12/18 08:58:00;;;;;;;9.97;4.83;;;-3.50;99.90;;;;;;5043046;28;20227;-78
2022/12/18 09:00:25;;;;;;;9.23;5.10;;;-3.40;99.90;;;;;;5059409;28;20562;-78
2022/12/18 09:02:51;;;;;;;10.80;4.80;;;-3.30;99.90;;;;;;5053140;28;20191;-79
2022/12/18 09:05:16;;;;;;;10.77;5.40;;;-3.20;99.90;;;;;;5060162;28;20187;-78
2022/12/18 09:07:42;;;;;;;9.30;5.50;;;-3.20;99.90;;;;;;5059665;28;20201;-78
2022/12/18 09:10:07;;;;;;;8.50;4.80;;;-3.10;99.90;;;;;;5039016;28;20184;-78
2022/12/18 09:12:33;;;;;;;8.70;5.33;;;-3.10;99.90;;;;;;5037451;28;20606;-79
2022/12/18 09:14:58;;;;;;;8.83;4.93;;;-3.00;99.90;;;;;;5039943;28;20175;-77
2022/12/18 09:17:24;;;;;;;9.03;5.00;;;-3.00;99.90;;;;;;5058060;28;20203;-79
2022/12/18 09:19:49;;;;;;;10.10;4.80;;;-2.90;99.90;;;;;;5056264;28;20204;-77
2022/12/18 09:22:15;;;;;;;10.40;5.10;;;-2.90;99.90;;;;;;5042107;28;20191;-78
2022/12/18 09:24:40;;;;;;;8.93;5.00;;;-2.80;99.90;;;;;;5059108;28;20206;-78
2022/12/18 09:27:06;;;;;;;9.47;5.43;;;-2.70;99.90;;;;;;5060249;28;20211;-78
2022/12/18 09:29:32;;;;;;;10.80;5.53;;;-2.70;99.90;;;;;;5038290;28;20180;-78
2022/12/18 09:31:58;;;;;;;7.43;4.73;;;-2.60;99.90;;;;;;5052676;28;20283;-77
2022/12/18 09:34:23;;;;;;;8.73;4.80;;;-2.50;99.90;;;;;;5053368;28;20273;-77
2022/12/18 09:36:49;;;;;;;7.43;4.80;;;-2.40;99.90;;;;;;5051304;28;20237;-77
2022/12/18 09:39:14;;;;;;;9.23;4.67;;;-2.40;99.90;;;;;;5036025;28;20196;-78
2022/12/18 09:41:47;;;;;;;7.27;4.40;;;-2.30;99.90;;;;;;5053627;28;20565;-78
2022/12/18 09:44:21;;;;;;;10.57;5.20;;;-2.20;99.90;;;;;;5023747;28;20660;-78
2022/12/18 09:47:12;;;;;;;8.83;3.77;;;-2.10;99.90;;;;;;5032335;28;20212;-79
2022/12/18 09:49:43;;;;;;;8.23;5.10;;;-2.00;99.90;;;;;;5051064;28;20219;-78
2022/12/18 09:52:17;;;;;;;7.27;4.57;;;-1.90;99.90;;;;;;5051137;28;20265;-78
2022/12/18 09:54:49;;;;;;;6.83;4.50;;;-1.80;99.90;;;;;;5042609;28;20175;-78
2022/12/18 09:57:21;;;;;;;9.33;4.80;;;-1.80;99.90;;;;;;5031951;28;20205;-77
2022/12/18 09:59:53;;;;;;;7.83;4.30;;;-1.70;99.90;;;;;;5038730;28;20197;-79
2022/12/18 10:02:24;;;;;;;7.97;4.43;;;-1.60;99.90;;;;;;5034419;28;20279;-79
2022/12/18 10:05:12;;;;;;;10.03;5.43;;;-1.60;99.90;;;;;;5051113;28;20186;-78
2022/12/18 10:08:09;;;;;;;9.23;4.80;;;-1.50;99.90;;;;;;5046049;28;20510;-78
2022/12/18 10:10:52;;;;;;;7.20;4.73;;;-1.40;99.90;;;;;;5049907;28;20555;-78
2022/12/18 10:13:39;;;;;;;8.10;4.67;;;-1.30;99.90;;;;;;5040800;28;20184;-79
2022/12/18 10:16:25;;;;;;;8.97;5.17;;;-1.30;99.90;;;;;;5034039;28;20945;-79
2022/12/18 10:19:15;;;;;;;7.53;3.90;;;-1.20;99.90;;;;;;5034988;28;20652;-77
2022/12/18 10:22:22;;;;;;;7.57;4.27;;;-1.10;99.90;;;;;;5052333;28;20187;-78
2022/12/18 10:25:02;;;;;;;6.80;4.07;;;-1.00;99.90;;;;;;5033474;28;20261;-77
2022/12/18 10:27:29;;;;;;;8.13;4.60;;;-1.00;99.90;;;;;;5055410;28;20193;-77
2022/12/18 10:29:54;;;;;;;9.20;4.23;;;-0.90;99.90;;;;;;5057573;28;20177;-78
2022/12/18 10:32:23;;;;;;;10.93;4.57;;;-0.80;99.90;;;;;;5053602;28;20218;-77
2022/12/18 10:34:50;;;;;;;12.00;4.70;;;-0.70;99.90;;;;;;5053367;28;20213;-76
2022/12/18 10:37:19;;;;;;;9.00;4.57;;;-0.70;99.90;;;;;;5053418;28;20568;-76
2022/12/18 10:39:46;;;;;;;6.63;4.23;;;-0.60;99.90;;;;;;5053206;28;20196;-77
2022/12/18 10:42:19;;;;;;;10.77;4.43;;;-0.60;99.90;;;;;;5052548;28;20257;-77
2022/12/18 10:44:45;;;;;;;7.27;4.27;;;-0.50;99.90;;;;;;5053402;28;20220;-76
2022/12/18 10:47:15;;;;;;;7.77;4.13;;;-0.40;99.90;;;;;;5035381;28;20198;-76
2022/12/18 10:49:52;;;;;;;9.80;4.90;;;-0.40;99.90;;;;;;5053440;28;20266;-76
2022/12/18 10:52:24;;;;;;;8.87;4.60;;;-0.40;99.90;;;;;;5053286;28;20631;-76
2022/12/18 10:54:58;;;;;;;5.93;4.00;;;-0.30;99.90;;;;;;5035171;28;20230;-76
2022/12/18 10:57:26;;;;;;;8.23;5.10;;;-0.20;99.90;;;;;;5035177;28;20343;-76
2022/12/18 10:59:57;;;;;;;7.43;4.83;;;-0.20;99.90;;;;;;5035082;28;20294;-76
2022/12/18 11:02:35;;;;;;;8.70;4.77;;;-0.10;99.90;;;;;;5035275;28;20186;-76
2022/12/18 11:05:02;;;;;;;6.43;4.10;;;-0.10;99.90;;;;;;5053064;28;20170;-77
2022/12/18 11:07:48;;;;;;;7.43;4.57;;;0.00;99.90;;;;;;5034907;28;20207;-77
2022/12/18 11:10:19;;;;;;;7.10;4.63;;;0.00;99.90;;;;;;5052719;28;20178;-76
2022/12/18 11:12:45;;;;;;;7.23;4.23;;;0.10;99.90;;;;;;5052863;28;20527;-77
2022/12/18 11:15:27;;;;;;;7.83;4.40;;;0.10;99.90;;;;;;5052705;28;20258;-77
2022/12/18 11:17:53;;;;;;;6.20;3.90;;;0.10;99.90;;;;;;5052628;28;20198;-76
2022/12/18 11:20:31;;;;;;;8.87;4.10;;;0.20;99.90;;;;;;5052436;28;20290;-76
2022/12/18 11:23:11;;;;;;;8.50;4.93;;;0.30;99.90;;;;;;5034713;28;20174;-76
2022/12/18 11:25:38;;;;;;;7.77;4.70;;;0.30;99.90;;;;;;5052839;28;20241;-76
2022/12/18 11:28:25;;;;;;;9.53;4.87;;;0.40;99.90;;;;;;5052402;28;20638;-77
2022/12/18 11:31:23;;;;;;;7.33;4.13;;;0.50;99.90;;;;;;5052535;28;20524;-76
2022/12/18 11:34:27;;;;;;;6.43;3.87;;;0.50;99.90;;;;;;5052627;28;20154;-76
2022/12/18 11:36:54;;;;;;;7.67;4.43;;;0.60;52.20;;;;;;5073148;22;20255;-76
2022/12/18 11:39:45;;;;;;;7.47;3.77;;;0.60;99.90;;;;;;5072866;28;20197;-74
2022/12/18 11:42:37;;;;;;;9.57;4.77;;;0.70;99.90;;;;;;5072916;28;20241;-74
2022/12/18 11:45:02;;;;;;;9.23;5.37;;;0.70;99.90;;;;;;5072591;28;20170;-74
2022/12/18 11:47:40;;;;;;;7.97;4.37;;;0.70;99.90;;;;;;5072488;28;20198;-74
2022/12/18 11:50:18;;;;;;;6.83;4.57;;;0.80;99.90;;;;;;5072484;28;20165;-72
2022/12/18 11:52:44;;;;;;;9.13;4.60;;;0.80;99.90;;;;;;5071433;28;20182;-74
2022/12/18 11:55:16;;;;;;;8.70;4.47;;;0.80;99.90;;;;;;5075426;28;20178;-74
2022/12/18 11:57:54;;;;;;;8.23;4.43;;;0.80;99.90;;;;;;5076233;28;20693;-76
2022/12/18 12:00:21;;;;;;;10.60;4.87;;;0.80;99.90;;;;;;5075927;28;20188;-76
2022/12/18 12:03:24;;;;;;;9.00;4.70;;;0.80;99.90;;;;;;5075194;28;20546;-76
2022/12/18 12:06:03;;;;;;;7.23;4.40;;;0.90;99.90;;;;;;5076205;28;20169;-75
2022/12/18 12:08:34;;;;;;;8.97;4.77;;;0.90;99.90;;;;;;5074921;28;20198;-75
2022/12/18 12:11:16;;;;;;;8.83;4.60;;;0.90;99.90;;;;;;5074919;28;20175;-75
2022/12/18 12:13:55;;;;;;;7.50;5.30;;;0.90;99.90;;;;;;5076044;28;20174;-74
2022/12/18 12:16:47;;;;;;;9.20;5.17;;;0.90;99.90;;;;;;5076312;28;20165;-74
2022/12/18 12:19:31;;;;;;;9.23;5.20;;;0.90;99.90;;;;;;5076316;28;20186;-72
2022/12/18 12:22:02;;;;;;;7.53;4.77;;;0.90;1.00;;;;;;5076286;28;20183;-74
2022/12/18 12:24:49;;;;;;;9.10;5.83;;;0.90;1.00;;;;;;5075888;28;20163;-74
2022/12/18 12:27:29;;;;;;;9.80;5.50;;;0.90;1.00;;;;;;5074510;28;20318;-74
2022/12/18 12:30:09;;;;;;;7.53;4.87;;;0.90;1.00;;;;;;5074497;28;20205;-74
2022/12/18 12:33:04;;;;;;;9.23;4.60;;;0.90;1.00;;;;;;5075690;28;20666;-74
2022/12/18 12:35:55;;;;;;;9.77;4.97;;;1.00;99.90;;;;;;5044363;28;20339;-74
2022/12/18 12:38:32;;;;;;;9.07;5.33;;;1.00;99.90;;;;;;5075296;28;20711;-74
2022/12/18 12:41:06;;;;;;;8.30;4.33;;;1.00;8.50;;;;;;5076064;28;20204;-74
2022/12/18 12:43:43;;;;;;;8.27;5.27;;;1.00;1.00;;;;;;5075817;28;20212;-74
2022/12/18 12:46:15;;;;;;;7.67;5.60;;;1.00;1.00;;;;;;5075344;28;20170;-74
2022/12/18 12:48:43;;;;;;;7.17;4.67;;;1.00;41.00;;;;;;5075344;28;20175;-74
2022/12/18 12:51:14;;;;;;;10.73;5.47;;;1.00;1.00;;;;;;5074018;28;20190;-74
2022/12/18 12:53:41;;;;;;;8.57;5.50;;;1.00;1.00;;;;;;5074056;28;20187;-74
2022/12/18 12:56:11;;;;;;;10.10;5.63;;;1.00;77.30;;;;;;5075497;28;20175;-74
2022/12/18 12:59:00;;;;;;;9.67;5.30;;;1.00;52.70;;;;;;5075244;28;20191;-73
2022/12/18 13:01:47;;;;;;;9.87;5.60;;;0.90;99.90;;;;;;5075188;28;20227;-73
2022/12/18 13:04:27;;;;;;;9.67;6.00;;;0.90;69.00;;;;;;5075295;28;20152;-74
2022/12/18 13:06:57;;;;;;;9.87;5.67;;;0.90;34.20;;;;;;5072873;28;20205;-74
2022/12/18 13:09:22;;;;;;;9.57;5.57;;;0.90;66.90;;;;;;5074967;28;20178;-74
2022/12/18 13:14:38;;;;;;;9.00;6.03;;;0.90;1.00;;;;;;5074977;28;20208;-74